createdAt,value
2019-01-24T00:00:19.357Z,51.13
2019-01-24T00:02:46.763Z,57.75
2019-01-24T00:05:14.351Z,48.25
2019-01-24T00:07:41.799Z,42.67
2019-01-24T00:10:10.503Z,47.17
2019-01-24T00:12:38.017Z,49.05
2019-01-24T00:15:06.968Z,27.95
2019-01-24T00:17:34.420Z,38.28
2019-01-24T00:20:01.867Z,41.37
2019-01-24T00:22:29.636Z,37.42
2019-01-24T00:24:57.098Z,42.20
2019-01-24T00:27:24.531Z,31.77
2019-01-24T00:29:51.959Z,30.48
2019-01-24T00:32:19.411Z,40.03
2019-01-24T00:34:46.855Z,38.08
2019-01-24T00:37:14.287Z,41.60
2019-01-24T00:39:41.747Z,37.73
2019-01-24T00:42:09.194Z,32.88
2019-01-24T00:44:36.979Z,36.98
2019-01-24T00:47:05.035Z,36.17
2019-01-24T00:49:32.491Z,38.95
2019-01-24T00:51:59.910Z,38.60
2019-01-24T00:54:27.318Z,34.80
2019-01-24T00:56:54.768Z,34.78
2019-01-24T00:59:22.191Z,34.13
2019-01-24T01:01:49.630Z,36.83
2019-01-24T01:04:17.070Z,41.20
2019-01-24T01:06:44.807Z,40.98
2019-01-24T01:09:12.681Z,39.60
2019-01-24T01:11:40.095Z,38.53
2019-01-24T01:14:07.774Z,36.25
2019-01-24T01:16:35.203Z,38.15
2019-01-24T01:19:02.629Z,39.27
2019-01-24T01:21:30.094Z,39.63
2019-01-24T01:23:58.243Z,37.45
2019-01-24T01:26:25.796Z,36.10
2019-01-24T01:28:53.568Z,36.53
2019-01-24T01:31:21.345Z,36.70
2019-01-24T01:33:48.757Z,31.73
2019-01-24T01:36:16.557Z,32.53
2019-01-24T01:38:43.983Z,26.68
2019-01-24T01:41:11.678Z,26.12
2019-01-24T01:43:39.135Z,31.00
2019-01-24T01:46:06.547Z,35.63
2019-01-24T01:48:34.253Z,35.43
2019-01-24T01:51:01.715Z,29.05
2019-01-24T01:53:29.121Z,32.28
2019-01-24T01:55:56.527Z,34.80
2019-01-24T01:58:24.300Z,30.35
2019-01-24T02:00:51.768Z,30.70
2019-01-24T02:03:19.227Z,33.92
2019-01-24T02:05:46.631Z,28.10
2019-01-24T02:08:14.434Z,30.60
2019-01-24T02:10:41.904Z,29.72
2019-01-24T02:13:09.324Z,27.95
2019-01-24T02:15:36.751Z,26.02
2019-01-24T02:18:04.367Z,29.87
2019-01-24T02:20:31.810Z,29.05
2019-01-24T02:22:59.595Z,27.40
2019-01-24T02:25:27.018Z,20.62
2019-01-24T02:27:54.479Z,25.75
2019-01-24T02:30:28.569Z,24.07
2019-01-24T02:32:56.049Z,25.17
2019-01-24T02:35:23.492Z,25.57
2019-01-24T02:37:50.887Z,23.55
2019-01-24T02:40:18.400Z,18.98
2019-01-24T02:42:45.802Z,25.50
2019-01-24T02:45:14.633Z,25.30
2019-01-24T02:47:42.044Z,24.57
2019-01-24T02:50:12.085Z,22.95
2019-01-24T02:52:39.770Z,25.40
2019-01-24T02:55:08.733Z,29.45
2019-01-24T02:57:36.171Z,23.52
2019-01-24T03:00:05.122Z,28.23
2019-01-24T03:02:32.644Z,26.65
2019-01-24T03:05:00.413Z,26.35
2019-01-24T03:07:27.834Z,28.73
2019-01-24T03:09:55.306Z,24.77
2019-01-24T03:12:22.735Z,25.08
2019-01-24T03:14:50.148Z,27.45
2019-01-24T03:17:17.620Z,24.15
2019-01-24T03:19:45.036Z,27.48
2019-01-24T03:22:12.731Z,25.77
2019-01-24T03:24:40.490Z,25.55
2019-01-24T03:27:07.897Z,26.40
2019-01-24T03:29:35.322Z,27.22
2019-01-24T03:32:02.778Z,23.98
2019-01-24T03:34:30.539Z,24.87
2019-01-24T03:36:58.298Z,22.67
2019-01-24T03:39:25.777Z,24.57
2019-01-24T03:41:53.237Z,23.87
2019-01-24T03:44:20.645Z,23.55
2019-01-24T03:46:48.071Z,27.50
2019-01-24T03:49:15.515Z,24.10
2019-01-24T03:51:42.928Z,23.90
2019-01-24T03:54:10.391Z,26.27
2019-01-24T03:56:37.807Z,24.77
2019-01-24T03:59:05.623Z,20.40
2019-01-24T04:01:33.601Z,23.95
2019-01-24T04:04:01.013Z,25.05
2019-01-24T04:06:28.457Z,21.40
2019-01-24T04:08:55.867Z,24.60
2019-01-24T04:11:23.634Z,22.10
2019-01-24T04:13:51.056Z,24.15
2019-01-24T04:16:18.753Z,23.40
2019-01-24T04:18:46.215Z,23.57
2019-01-24T04:21:13.631Z,22.42
2019-01-24T04:23:41.047Z,25.97
2019-01-24T04:26:08.899Z,26.12
2019-01-24T04:28:36.318Z,24.50
2019-01-24T04:31:03.776Z,26.87
2019-01-24T04:33:31.186Z,23.83
2019-01-24T04:35:59.036Z,23.18
2019-01-24T04:38:26.814Z,25.32
2019-01-24T04:40:54.232Z,24.98
2019-01-24T04:43:21.645Z,25.52
2019-01-24T04:45:49.132Z,23.65
2019-01-24T04:48:16.578Z,27.25
2019-01-24T04:50:43.983Z,25.85
2019-01-24T04:53:11.961Z,27.22
2019-01-24T04:55:39.379Z,27.73
2019-01-24T04:58:06.811Z,27.32
2019-01-24T05:00:34.237Z,24.65
2019-01-24T05:03:01.666Z,25.60
2019-01-24T05:05:29.458Z,26.60
2019-01-24T05:07:57.233Z,23.47
2019-01-24T05:10:24.995Z,22.70
2019-01-24T05:12:52.428Z,23.67
2019-01-24T05:15:19.938Z,28.00
2019-01-24T05:17:47.385Z,25.77
2019-01-24T05:20:14.869Z,26.45
2019-01-24T05:22:42.309Z,26.12
2019-01-24T05:25:13.622Z,23.52
2019-01-24T05:27:41.053Z,24.25
2019-01-24T05:30:21.506Z,24.12
2019-01-24T05:32:48.947Z,24.00
2019-01-24T05:35:16.361Z,23.60
2019-01-24T05:37:43.881Z,25.72
2019-01-24T05:40:11.285Z,26.50
2019-01-24T05:42:39.157Z,27.93
2019-01-24T05:45:08.226Z,25.55
2019-01-24T05:47:35.906Z,23.50
2019-01-24T05:50:04.700Z,23.65
2019-01-24T05:52:32.134Z,24.37
2019-01-24T05:54:59.603Z,24.32
2019-01-24T05:57:27.272Z,24.23
2019-01-24T05:59:54.691Z,25.05
2019-01-24T06:02:22.154Z,24.75
2019-01-24T06:04:49.561Z,25.37
2019-01-24T06:07:16.985Z,25.40
2019-01-24T06:09:44.426Z,22.90
2019-01-24T06:12:12.230Z,27.58
2019-01-24T06:14:39.714Z,24.57
2019-01-24T06:17:07.380Z,25.97
2019-01-24T06:19:34.789Z,24.37
2019-01-24T06:22:02.217Z,27.00
2019-01-24T06:24:29.642Z,26.20
2019-01-24T06:26:57.093Z,27.67
2019-01-24T06:29:24.851Z,26.12
2019-01-24T06:31:52.310Z,38.48
2019-01-24T06:34:20.071Z,28.67
2019-01-24T06:36:47.837Z,27.55
2019-01-24T06:39:15.270Z,27.35
2019-01-24T06:41:42.734Z,43.68
2019-01-24T06:44:10.138Z,26.45
2019-01-24T06:46:37.655Z,25.82
2019-01-24T06:49:05.110Z,26.85
2019-01-24T06:51:32.524Z,25.80
2019-01-24T06:53:59.935Z,23.95
2019-01-24T06:56:27.369Z,23.32
2019-01-24T06:58:55.069Z,25.92
2019-01-24T07:01:22.749Z,26.50
2019-01-24T07:03:50.199Z,30.90
2019-01-24T07:06:17.604Z,25.75
2019-01-24T07:08:45.013Z,27.48
2019-01-24T07:11:12.444Z,25.95
2019-01-24T07:13:39.853Z,27.37
2019-01-24T07:16:07.549Z,28.05
2019-01-24T07:18:34.960Z,27.13
2019-01-24T07:21:02.411Z,25.17
2019-01-24T07:23:29.827Z,26.55
2019-01-24T07:25:57.516Z,25.75
2019-01-24T07:28:24.966Z,27.25
2019-01-24T07:30:52.385Z,27.15
2019-01-24T07:33:19.830Z,27.42
2019-01-24T07:35:47.274Z,26.20
2019-01-24T07:38:14.686Z,27.65
2019-01-24T07:40:42.110Z,26.85
2019-01-24T07:43:09.519Z,27.80
2019-01-24T07:45:38.018Z,32.38
2019-01-24T07:48:05.766Z,26.82
2019-01-24T07:50:33.226Z,26.25
2019-01-24T07:53:00.623Z,28.47
2019-01-24T07:55:28.030Z,27.10
2019-01-24T07:57:55.534Z,28.80
2019-01-24T08:00:27.462Z,25.68
2019-01-24T08:02:55.335Z,26.35
2019-01-24T08:05:23.344Z,26.30
2019-01-24T08:07:50.751Z,24.37
2019-01-24T08:10:22.214Z,24.52
2019-01-24T08:12:49.978Z,25.88
2019-01-24T08:15:21.220Z,21.20
2019-01-24T08:17:48.845Z,23.85
2019-01-24T08:20:20.553Z,24.32
2019-01-24T08:22:48.311Z,25.32
2019-01-24T08:25:15.789Z,25.48
2019-01-24T08:27:43.401Z,23.73
2019-01-24T08:30:15.802Z,24.60
2019-01-24T08:32:43.577Z,24.65
2019-01-24T08:35:11.108Z,27.70
2019-01-24T08:37:38.521Z,27.25
2019-01-24T08:40:21.930Z,26.30
2019-01-24T08:42:49.350Z,23.90
2019-01-24T08:45:17.251Z,26.02
2019-01-24T08:47:44.686Z,24.05
2019-01-24T08:50:13.899Z,25.60
2019-01-24T08:52:41.374Z,26.90
2019-01-24T08:55:13.117Z,29.37
2019-01-24T08:57:40.555Z,27.55
2019-01-24T09:00:09.871Z,27.75
2019-01-24T09:02:41.815Z,26.50
2019-01-24T09:05:10.930Z,29.18
2019-01-24T09:07:38.972Z,29.77
2019-01-24T09:10:08.622Z,28.83
2019-01-24T09:12:36.386Z,28.67
2019-01-24T09:15:04.865Z,29.10
2019-01-24T09:17:32.301Z,30.23
2019-01-24T09:20:00.098Z,27.20
2019-01-24T09:22:27.541Z,27.37
2019-01-24T09:24:55.663Z,30.80
2019-01-24T09:27:23.650Z,29.18
2019-01-24T09:29:51.025Z,32.65
2019-01-24T09:32:18.820Z,29.77
2019-01-24T09:34:46.253Z,31.10
2019-01-24T09:37:14.049Z,32.38
2019-01-24T09:39:41.482Z,33.90
2019-01-24T09:42:09.163Z,30.82
2019-01-24T09:44:37.087Z,31.82
2019-01-24T09:47:07.549Z,30.62
2019-01-24T09:49:35.059Z,36.10
2019-01-24T09:52:02.894Z,31.35
2019-01-24T09:54:30.375Z,36.05
2019-01-24T09:56:58.222Z,33.25
2019-01-24T09:59:27.093Z,32.58
2019-01-24T10:01:54.886Z,34.08
2019-01-24T10:04:22.289Z,34.92
2019-01-24T10:06:50.651Z,32.93
2019-01-24T10:09:18.315Z,32.88
2019-01-24T10:11:45.719Z,34.23
2019-01-24T10:14:14.009Z,35.35
2019-01-24T10:16:43.814Z,35.08
2019-01-24T10:19:11.595Z,38.85
2019-01-24T10:21:39.092Z,39.03
2019-01-24T10:24:06.642Z,41.50
2019-01-24T10:26:34.094Z,43.17
2019-01-24T10:29:03.632Z,38.92
2019-01-24T10:31:32.499Z,42.17
2019-01-24T10:33:59.911Z,39.23
2019-01-24T10:36:27.517Z,38.23
2019-01-24T10:38:54.925Z,35.83
2019-01-24T10:41:22.590Z,36.80
2019-01-24T10:43:50.031Z,38.58
2019-01-24T10:46:17.600Z,35.30
2019-01-24T10:48:45.007Z,36.95
2019-01-24T10:51:12.458Z,36.40
2019-01-24T10:53:43.023Z,36.13
2019-01-24T10:56:10.498Z,37.40
2019-01-24T10:58:37.934Z,33.25
2019-01-24T11:01:05.405Z,33.80
2019-01-24T11:03:33.002Z,34.67
2019-01-24T11:06:00.779Z,33.35
2019-01-24T11:08:30.080Z,32.60
2019-01-24T11:10:57.567Z,32.98
2019-01-24T11:13:24.992Z,32.25
2019-01-24T11:15:52.430Z,33.80
2019-01-24T11:18:19.868Z,33.88
2019-01-24T11:20:47.305Z,36.28
2019-01-24T11:23:15.028Z,33.90
2019-01-24T11:25:42.485Z,35.25
2019-01-24T11:28:10.879Z,35.08
2019-01-24T11:30:38.416Z,32.80
2019-01-24T11:33:06.128Z,33.18
2019-01-24T11:35:34.679Z,31.12
2019-01-24T11:38:02.160Z,34.50
2019-01-24T11:40:31.266Z,33.28
2019-01-24T11:42:58.998Z,32.90
2019-01-24T11:45:27.980Z,32.53
2019-01-24T11:47:55.502Z,34.43
2019-01-24T11:50:23.211Z,33.20
2019-01-24T11:52:51.079Z,34.90
2019-01-24T11:55:19.970Z,32.78
2019-01-24T11:57:47.540Z,33.10
2019-01-24T12:00:22.809Z,35.92
2019-01-24T12:02:50.266Z,33.00
2019-01-24T12:05:18.001Z,33.10
2019-01-24T12:07:45.889Z,33.15
2019-01-24T12:10:14.817Z,35.20
2019-01-24T12:12:42.622Z,33.53
2019-01-24T12:15:11.648Z,32.20
2019-01-24T12:17:39.018Z,32.40
2019-01-24T12:20:07.997Z,33.63
2019-01-24T12:22:35.550Z,32.17
2019-01-24T12:25:03.024Z,34.00
2019-01-24T12:27:30.434Z,32.90
2019-01-24T12:29:57.990Z,34.03
2019-01-24T12:32:25.398Z,33.80
2019-01-24T12:34:52.811Z,33.40
2019-01-24T12:37:20.237Z,34.10
2019-01-24T12:39:48.258Z,33.00
2019-01-24T12:42:15.674Z,32.05
2019-01-24T12:44:43.161Z,32.98
2019-01-24T12:47:10.600Z,33.20
2019-01-24T12:49:38.024Z,32.48
2019-01-24T12:52:05.557Z,30.92
2019-01-24T12:54:33.002Z,31.57
2019-01-24T12:57:00.769Z,33.75
2019-01-24T12:59:28.179Z,34.73
2019-01-24T13:01:55.622Z,33.60
2019-01-24T13:04:23.343Z,36.60
2019-01-24T13:06:50.816Z,33.90
2019-01-24T13:09:18.215Z,35.68
2019-01-24T13:11:45.626Z,33.60
2019-01-24T13:14:13.054Z,33.65
2019-01-24T13:16:40.841Z,35.60
2019-01-24T13:19:08.606Z,32.78
2019-01-24T13:21:36.058Z,31.82
2019-01-24T13:24:03.631Z,37.80
2019-01-24T13:26:31.039Z,35.95
2019-01-24T13:28:58.469Z,33.78
2019-01-24T13:31:25.886Z,33.05
2019-01-24T13:33:53.535Z,31.85
2019-01-24T13:36:22.370Z,30.88
2019-01-24T13:38:51.294Z,33.38
2019-01-24T13:41:20.551Z,31.65
2019-01-24T13:43:49.669Z,30.70
2019-01-24T13:46:18.144Z,29.37
2019-01-24T13:48:45.643Z,28.38
2019-01-24T13:51:14.986Z,30.62
2019-01-24T13:53:42.865Z,31.65
2019-01-24T13:56:11.665Z,32.00
2019-01-24T13:58:41.421Z,29.02
2019-01-24T14:01:09.912Z,28.65
2019-01-24T14:03:42.285Z,28.42
2019-01-24T14:06:08.632Z,27.52
2019-01-24T14:08:36.625Z,29.55
2019-01-24T14:11:05.957Z,32.20
2019-01-24T14:13:33.849Z,32.10
2019-01-24T14:16:02.214Z,30.20
2019-01-24T14:18:29.710Z,29.55
2019-01-24T14:20:57.733Z,30.27
2019-01-24T14:23:25.553Z,27.67
2019-01-24T14:25:54.354Z,31.75
2019-01-24T14:28:22.248Z,30.12
2019-01-24T14:30:50.290Z,27.87
2019-01-24T14:33:19.799Z,30.10
2019-01-24T14:35:47.877Z,28.60
2019-01-24T14:38:16.146Z,29.55
2019-01-24T14:40:45.342Z,28.15
2019-01-24T14:43:12.767Z,27.52
2019-01-24T14:45:41.742Z,29.02
2019-01-24T14:48:10.217Z,29.23
2019-01-24T14:50:38.634Z,27.70
2019-01-24T14:53:07.560Z,27.50
2019-01-24T14:55:36.661Z,29.27
2019-01-24T14:58:05.285Z,28.07
2019-01-24T15:00:35.169Z,25.82
2019-01-24T15:03:04.174Z,28.00
2019-01-24T15:05:34.654Z,25.82
2019-01-24T15:08:03.746Z,27.95
2019-01-24T15:10:34.441Z,25.72
2019-01-24T15:13:03.767Z,25.20
2019-01-24T15:15:31.478Z,24.87
2019-01-24T15:18:00.991Z,27.80
2019-01-24T15:20:31.883Z,27.07
2019-01-24T15:23:02.917Z,25.80
2019-01-24T15:25:33.799Z,23.05
2019-01-24T15:28:03.468Z,24.15
2019-01-24T15:30:32.523Z,23.60
2019-01-24T15:33:02.050Z,23.80
2019-01-24T15:35:30.093Z,24.70
2019-01-24T15:37:57.662Z,23.77
2019-01-24T15:40:27.130Z,26.55
2019-01-24T15:42:54.910Z,20.27
2019-01-24T15:45:23.697Z,25.50
2019-01-24T15:47:51.231Z,23.50
2019-01-24T15:50:22.259Z,23.60
2019-01-24T15:52:51.668Z,27.58
2019-01-24T15:55:20.207Z,24.90
2019-01-24T15:57:47.661Z,23.65
2019-01-24T16:00:20.461Z,24.37
2019-01-24T16:02:48.296Z,21.60
2019-01-24T16:05:15.878Z,25.82
2019-01-24T16:07:43.362Z,23.10
2019-01-24T16:10:14.058Z,22.87
2019-01-24T16:12:42.013Z,24.70
2019-01-24T16:15:11.720Z,22.70
2019-01-24T16:17:39.493Z,23.77
2019-01-24T16:20:09.095Z,22.48
2019-01-24T16:22:37.180Z,19.90
2019-01-24T16:25:07.065Z,21.93
2019-01-24T16:27:35.334Z,22.42
2019-01-24T16:30:02.862Z,22.80
2019-01-24T16:32:30.383Z,22.02
2019-01-24T16:34:59.261Z,22.70
2019-01-24T16:37:27.044Z,24.30
2019-01-24T16:39:57.077Z,23.95
2019-01-24T16:42:25.998Z,23.77
2019-01-24T16:44:54.727Z,23.90
2019-01-24T16:47:22.509Z,24.35
2019-01-24T16:49:50.043Z,24.85
2019-01-24T16:52:19.471Z,22.80
2019-01-24T16:54:47.209Z,22.77
2019-01-24T16:57:15.216Z,24.43
2019-01-24T16:59:45.035Z,24.67
2019-01-24T17:02:14.761Z,25.75
2019-01-24T17:04:43.382Z,23.77
2019-01-24T17:07:13.201Z,23.50
2019-01-24T17:09:42.365Z,23.80
2019-01-24T17:12:09.784Z,24.72
2019-01-24T17:14:39.320Z,23.75
2019-01-24T17:17:06.986Z,25.02
2019-01-24T17:19:35.043Z,25.48
2019-01-24T17:22:02.855Z,24.45
2019-01-24T17:24:30.287Z,23.18
2019-01-24T17:26:57.757Z,23.35
2019-01-24T17:29:30.122Z,24.75
2019-01-24T17:31:57.619Z,24.77
2019-01-24T17:34:26.008Z,23.95
2019-01-24T17:36:53.755Z,22.50
2019-01-24T17:39:23.803Z,26.80
2019-01-24T17:41:51.285Z,26.48
2019-01-24T17:44:18.935Z,25.52
2019-01-24T17:46:46.583Z,26.37
2019-01-24T17:49:13.970Z,24.95
2019-01-24T17:51:44.861Z,24.67
2019-01-24T17:54:12.412Z,25.02
2019-01-24T17:56:40.279Z,23.60
2019-01-24T17:59:08.193Z,25.02
2019-01-24T18:01:37.578Z,28.32
2019-01-24T18:04:06.680Z,24.05
2019-01-24T18:06:35.713Z,21.82
2019-01-24T18:09:05.085Z,27.13
2019-01-24T18:11:34.715Z,64.72
2019-01-24T18:14:02.555Z,29.70
2019-01-24T18:16:30.592Z,24.12
2019-01-24T18:18:58.087Z,27.00
2019-01-24T18:21:26.631Z,25.70
2019-01-24T18:23:54.256Z,24.87
2019-01-24T18:26:21.918Z,25.32
2019-01-24T18:28:49.868Z,25.60
2019-01-24T18:31:17.530Z,38.65
2019-01-24T18:33:45.730Z,24.15
2019-01-24T18:36:13.517Z,25.65
2019-01-24T18:38:45.151Z,23.90
2019-01-24T18:41:13.948Z,22.90
2019-01-24T18:43:41.972Z,25.95
2019-01-24T18:46:10.766Z,28.35
2019-01-24T18:48:39.453Z,25.00
2019-01-24T18:51:07.749Z,25.43
2019-01-24T18:53:35.508Z,25.65
2019-01-24T18:56:04.582Z,28.92
2019-01-24T18:58:35.128Z,22.20
2019-01-24T19:01:02.714Z,23.80
2019-01-24T19:03:30.248Z,23.50
2019-01-24T19:05:58.414Z,25.00
2019-01-24T19:08:26.195Z,25.25
2019-01-24T19:10:53.654Z,23.20
2019-01-24T19:13:21.312Z,25.27
2019-01-24T19:15:48.767Z,25.88
2019-01-24T19:18:16.189Z,26.50
2019-01-24T19:20:45.396Z,24.50
2019-01-24T19:23:14.517Z,22.07
2019-01-24T19:25:42.742Z,27.30
2019-01-24T19:28:10.198Z,25.30
2019-01-24T19:30:37.724Z,25.30
2019-01-24T19:33:06.765Z,23.12
2019-01-24T19:35:35.340Z,24.18
2019-01-24T19:38:03.834Z,26.33
2019-01-24T19:40:35.827Z,24.95
2019-01-24T19:43:03.722Z,25.27
2019-01-24T19:45:31.838Z,25.55
2019-01-24T19:48:00.168Z,25.48
2019-01-24T19:50:28.655Z,26.15
2019-01-24T19:52:56.336Z,26.77
2019-01-24T19:55:23.980Z,25.20
2019-01-24T19:57:51.624Z,27.15
2019-01-24T20:00:23.122Z,28.02
2019-01-24T20:02:49.652Z,27.10
2019-01-24T20:05:17.877Z,27.62
2019-01-24T20:07:45.588Z,27.07
2019-01-24T20:10:15.439Z,29.90
2019-01-24T20:12:43.483Z,25.10
2019-01-24T20:15:12.554Z,31.07
2019-01-24T20:17:42.412Z,30.15
2019-01-24T20:20:13.169Z,28.90
2019-01-24T20:22:42.081Z,26.70
2019-01-24T20:25:11.937Z,27.73
2019-01-24T20:27:39.993Z,28.60
2019-01-24T20:30:09.599Z,29.85
2019-01-24T20:32:37.080Z,31.17
2019-01-24T20:35:06.264Z,29.05
2019-01-24T20:37:34.760Z,30.90
2019-01-24T20:40:03.330Z,28.50
2019-01-24T20:42:30.747Z,32.20
2019-01-24T20:44:59.624Z,29.48
2019-01-24T20:47:27.886Z,29.63
2019-01-24T20:49:55.716Z,26.57
2019-01-24T20:52:23.203Z,27.77
2019-01-24T20:54:51.027Z,30.08
2019-01-24T20:57:18.789Z,30.30
2019-01-24T20:59:46.677Z,29.00
2019-01-24T21:02:14.407Z,32.05
2019-01-24T21:04:42.511Z,33.05
2019-01-24T21:07:09.947Z,29.75
2019-01-24T21:09:37.460Z,31.95
2019-01-24T21:12:04.928Z,31.68
2019-01-24T21:14:32.637Z,31.35
2019-01-24T21:17:00.089Z,28.55
2019-01-24T21:19:27.540Z,31.17
2019-01-24T21:21:55.000Z,29.72
2019-01-24T21:24:22.899Z,30.97
2019-01-24T21:26:50.354Z,31.35
2019-01-24T21:29:17.782Z,31.33
2019-01-24T21:31:45.247Z,29.77
2019-01-24T21:34:12.679Z,30.37
2019-01-24T21:36:40.116Z,31.35
2019-01-24T21:39:08.460Z,30.82
2019-01-24T21:41:36.171Z,33.90
2019-01-24T21:44:03.786Z,30.97
2019-01-24T21:46:31.247Z,32.45
2019-01-24T21:48:58.694Z,32.67
2019-01-24T21:51:26.149Z,33.78
2019-01-24T21:53:53.609Z,33.58
2019-01-24T21:56:21.066Z,33.53
2019-01-24T21:58:48.844Z,30.85
2019-01-24T22:01:16.246Z,34.00
2019-01-24T22:03:43.724Z,31.95
2019-01-24T22:06:11.530Z,32.08
2019-01-24T22:08:39.381Z,31.52
2019-01-24T22:11:06.828Z,33.45
2019-01-24T22:13:34.319Z,31.40
2019-01-24T22:16:01.715Z,29.95
2019-01-24T22:18:29.167Z,32.48
2019-01-24T22:20:56.879Z,31.45
2019-01-24T22:23:24.324Z,33.58
2019-01-24T22:25:51.789Z,31.62
2019-01-24T22:28:19.561Z,33.75
2019-01-24T22:30:49.079Z,30.25
2019-01-24T22:33:16.576Z,30.32
2019-01-24T22:35:44.106Z,30.43
2019-01-24T22:38:11.510Z,31.48
2019-01-24T22:40:38.927Z,28.00
2019-01-24T22:43:06.447Z,30.50
2019-01-24T22:45:33.849Z,30.85
2019-01-24T22:48:01.262Z,30.95
2019-01-24T22:53:38.330Z,31.17
2019-01-24T22:56:05.743Z,30.37
2019-01-24T22:58:33.193Z,32.60
2019-01-24T23:01:05.133Z,35.85
2019-01-24T23:03:34.079Z,28.57
2019-01-24T23:06:01.792Z,30.17
2019-01-24T23:08:29.476Z,31.10
2019-01-24T23:10:57.067Z,29.05
2019-01-24T23:13:24.500Z,30.02
2019-01-24T23:15:52.273Z,31.65
2019-01-24T23:18:19.740Z,29.87
2019-01-24T23:20:47.605Z,32.00
2019-01-24T23:23:15.088Z,32.85
2019-01-24T23:25:42.566Z,31.15
2019-01-24T23:28:10.126Z,32.13
2019-01-24T23:30:37.641Z,32.85
2019-01-24T23:33:05.197Z,30.55
2019-01-24T23:35:32.628Z,30.75
2019-01-24T23:38:00.062Z,31.10
2019-01-24T23:40:27.598Z,39.78
2019-01-24T23:42:55.023Z,29.02
2019-01-24T23:45:22.802Z,31.68
2019-01-24T23:47:50.238Z,29.52
2019-01-24T23:50:18.601Z,29.85
2019-01-24T23:52:46.209Z,33.25
2019-01-24T23:55:13.650Z,32.53
2019-01-24T23:57:41.131Z,29.20
